sensor_id;sensor_type;location;lat;lon;timestamp;pressure;altitude;pressure_sealevel;temperature;humidity
60059;BME280;45932;50.658;3.022;2022-11-15T00:02:05;100399.63;;;12.09;74.80
60059;BME280;45932;50.658;3.022;2022-11-15T00:04:30;100447.81;;;12.41;74.86
60059;BME280;45932;50.658;3.022;2022-11-15T00:06:56;100448.66;;;12.44;74.75
60059;BME280;45932;50.658;3.022;2022-11-15T00:09:21;100402.25;;;12.12;74.80
60059;BME280;45932;50.658;3.022;2022-11-15T00:11:46;100436.38;;;12.40;74.71
60059;BME280;45932;50.658;3.022;2022-11-15T00:14:12;100480.16;;;12.68;74.89
60059;BME280;45932;50.658;3.022;2022-11-15T00:16:37;100382.91;;;12.09;74.65
60059;BME280;45932;50.658;3.022;2022-11-15T00:19:02;100450.34;;;12.52;74.86
60059;BME280;45932;50.658;3.022;2022-11-15T00:21:28;100417.91;;;12.32;74.89
60059;BME280;45932;50.658;3.022;2022-11-15T00:23:53;100428.47;;;12.36;74.91
60059;BME280;45932;50.658;3.022;2022-11-15T00:26:18;100410.91;;;12.28;74.99
60059;BME280;45932;50.658;3.022;2022-11-15T00:28:44;100417.91;;;12.36;74.52
60059;BME280;45932;50.658;3.022;2022-11-15T00:31:12;100411.72;;;12.35;75.03
60059;BME280;45932;50.658;3.022;2022-11-15T00:33:38;100497.63;;;12.86;74.85
60059;BME280;45932;50.658;3.022;2022-11-15T00:36:05;100497.63;;;12.86;74.60
60059;BME280;45932;50.658;3.022;2022-11-15T00:38:33;100502.03;;;12.87;74.55
60059;BME280;45932;50.658;3.022;2022-11-15T00:40:59;100431.94;;;12.44;75.01
60059;BME280;45932;50.658;3.022;2022-11-15T00:43:24;100423.97;;;12.45;74.86
60059;BME280;45932;50.658;3.022;2022-11-15T00:45:50;100449.47;;;12.53;74.81
60059;BME280;45932;50.658;3.022;2022-11-15T00:48:15;100452.94;;;12.58;74.58
60059;BME280;45932;50.658;3.022;2022-11-15T00:50:40;100418.69;;;12.42;74.65
60059;BME280;45932;50.658;3.022;2022-11-15T00:53:06;100384.50;;;12.25;74.74
60059;BME280;45932;50.658;3.022;2022-11-15T00:55:31;100413.44;;;12.39;74.62
60059;BME280;45932;50.658;3.022;2022-11-15T00:58:05;100450.22;;;12.64;74.46
60059;BME280;45932;50.658;3.022;2022-11-15T01:00:31;100443.22;;;12.60;74.54
60059;BME280;45932;50.658;3.022;2022-11-15T01:02:56;100442.31;;;12.62;74.60
60059;BME280;45932;50.658;3.022;2022-11-15T01:05:22;100493.06;;;12.97;74.30
60059;BME280;45932;50.658;3.022;2022-11-15T01:07:51;100399.44;;;12.31;74.33
60059;BME280;45932;50.658;3.022;2022-11-15T01:10:18;100379.22;;;12.24;74.31
60059;BME280;45932;50.658;3.022;2022-11-15T01:12:43;100461.56;;;12.75;74.30
60059;BME280;45932;50.658;3.022;2022-11-15T01:15:08;100431.78;;;12.56;74.33
60059;BME280;45932;50.658;3.022;2022-11-15T01:17:34;100423.88;;;12.53;74.17
60059;BME280;45932;50.658;3.022;2022-11-15T01:19:59;100448.44;;;12.66;74.19
60059;BME280;45932;50.658;3.022;2022-11-15T01:22:24;100465.16;;;12.70;74.10
60059;BME280;45932;50.658;3.022;2022-11-15T01:24:50;100489.72;;;12.81;73.83
60059;BME280;45932;50.658;3.022;2022-11-15T01:27:16;100509.84;;;12.99;74.00
60059;BME280;45932;50.658;3.022;2022-11-15T01:29:41;100460.81;;;12.64;73.90
60059;BME280;45932;50.658;3.022;2022-11-15T01:32:06;100450.28;;;12.58;73.76
60059;BME280;45932;50.658;3.022;2022-11-15T01:34:32;100441.53;;;12.53;73.73
60059;BME280;45932;50.658;3.022;2022-11-15T01:36:57;100410.88;;;12.31;73.66
60059;BME280;45932;50.658;3.022;2022-11-15T01:39:22;100381.94;;;12.17;73.70
60059;BME280;45932;50.658;3.022;2022-11-15T01:41:48;100430.13;;;12.47;73.77
60059;BME280;45932;50.658;3.022;2022-11-15T01:46:59;100454.72;;;12.56;73.66
60059;BME280;45932;50.658;3.022;2022-11-15T01:49:27;100444.16;;;12.54;73.67
60059;BME280;45932;50.658;3.022;2022-11-15T01:51:54;100384.56;;;12.17;73.39
60059;BME280;45932;50.658;3.022;2022-11-15T01:54:21;100466.09;;;12.64;73.71
60059;BME280;45932;50.658;3.022;2022-11-15T01:56:52;100450.28;;;12.58;73.52
60059;BME280;45932;50.658;3.022;2022-11-15T01:59:18;100410.88;;;12.33;73.52
60059;BME280;45932;50.658;3.022;2022-11-15T02:01:44;100409.13;;;12.29;73.40
60059;BME280;45932;50.658;3.022;2022-11-15T02:04:13;100503.75;;;12.91;73.40
60059;BME280;45932;50.658;3.022;2022-11-15T02:06:44;100473.09;;;12.70;73.27
60059;BME280;45932;50.658;3.022;2022-11-15T02:09:11;100456.50;;;12.52;73.24
60059;BME280;45932;50.658;3.022;2022-11-15T02:11:38;100449.44;;;12.57;73.47
60059;BME280;45932;50.658;3.022;2022-11-15T02:14:04;100429.28;;;12.42;73.11
60059;BME280;45932;50.658;3.022;2022-11-15T02:36:02;100402.19;;;12.20;72.78
60059;BME280;45932;50.658;3.022;2022-11-15T02:38:40;100492.44;;;12.75;72.67
60059;BME280;45932;50.658;3.022;2022-11-15T02:41:15;100409.22;;;12.24;72.87
60059;BME280;45932;50.658;3.022;2022-11-15T02:44:07;100379.38;;;12.07;72.70
60059;BME280;45932;50.658;3.022;2022-11-15T02:47:11;100473.94;;;12.73;72.53
60059;BME280;45932;50.658;3.022;2022-11-15T02:49:40;100424.94;;;12.35;72.53
60059;BME280;45932;50.658;3.022;2022-11-15T02:52:06;100365.38;;;11.98;72.74
60059;BME280;45932;50.658;3.022;2022-11-15T02:54:33;100416.22;;;12.28;72.53
60059;BME280;45932;50.658;3.022;2022-11-15T02:57:10;100447.66;;;12.56;72.66
60059;BME280;45932;50.658;3.022;2022-11-15T03:11:14;100474.16;;;12.52;72.44
60059;BME280;45932;50.658;3.022;2022-11-15T03:14:06;100408.50;;;12.05;72.19
60059;BME280;45932;50.658;3.022;2022-11-15T03:16:40;100461.88;;;12.44;72.75
60059;BME280;45932;50.658;3.022;2022-11-15T03:19:14;100472.44;;;12.46;72.53
60059;BME280;45932;50.658;3.022;2022-11-15T03:21:44;100443.59;;;12.24;72.29
60059;BME280;45932;50.658;3.022;2022-11-15T03:24:12;100371.69;;;11.80;72.16
60059;BME280;45932;50.658;3.022;2022-11-15T03:26:41;100417.31;;;12.07;72.43
60059;BME280;45932;50.658;3.022;2022-11-15T03:29:14;100422.59;;;12.07;71.86
60059;BME280;45932;50.658;3.022;2022-11-15T03:31:44;100442.78;;;12.16;72.15
60059;BME280;45932;50.658;3.022;2022-11-15T03:34:19;100373.47;;;11.77;72.36
60059;BME280;45932;50.658;3.022;2022-11-15T03:36:47;100342.81;;;11.57;71.96
60059;BME280;45932;50.658;3.022;2022-11-15T03:39:13;100381.38;;;11.80;72.24
60059;BME280;45932;50.658;3.022;2022-11-15T03:41:48;100483.16;;;12.33;72.18
60059;BME280;45932;50.658;3.022;2022-11-15T03:47:12;100469.97;;;12.29;72.05
60059;BME280;45932;50.658;3.022;2022-11-15T03:49:52;100347.25;;;11.53;72.25
60059;BME280;45932;50.658;3.022;2022-11-15T03:52:20;100426.19;;;12.00;72.27
60059;BME280;45932;50.658;3.022;2022-11-15T03:54:55;100364.84;;;11.53;72.08
60059;BME280;45932;50.658;3.022;2022-11-15T03:57:21;100460.31;;;12.22;72.02
60059;BME280;45932;50.658;3.022;2022-11-15T03:59:47;100460.34;;;12.20;71.99
60059;BME280;45932;50.658;3.022;2022-11-15T04:02:13;100366.56;;;11.63;71.97
60059;BME280;45932;50.658;3.022;2022-11-15T04:04:38;100349.03;;;11.48;71.88
60059;BME280;45932;50.658;3.022;2022-11-15T04:07:04;100391.09;;;11.76;71.77
60059;BME280;45932;50.658;3.022;2022-11-15T04:09:29;100326.25;;;11.35;72.04
60059;BME280;45932;50.658;3.022;2022-11-15T04:11:55;100461.28;;;12.14;72.03
60059;BME280;45932;50.658;3.022;2022-11-15T04:14:20;100399.91;;;11.75;71.86
60059;BME280;45932;50.658;3.022;2022-11-15T04:16:45;100326.28;;;11.29;72.00
60059;BME280;45932;50.658;3.022;2022-11-15T04:19:11;100374.53;;;11.57;72.21
60059;BME280;45932;50.658;3.022;2022-11-15T04:21:55;100392.03;;;11.69;72.02
60059;BME280;45932;50.658;3.022;2022-11-15T04:24:38;100403.44;;;11.74;71.90
60059;BME280;45932;50.658;3.022;2022-11-15T04:27:04;100428.84;;;11.92;71.93
60059;BME280;45932;50.658;3.022;2022-11-15T04:29:29;100408.69;;;11.80;72.00
60059;BME280;45932;50.658;3.022;2022-11-15T04:32:04;100456.97;;;12.01;71.87
60059;BME280;45932;50.658;3.022;2022-11-15T04:34:30;100373.66;;;11.55;71.56
60059;BME280;45932;50.658;3.022;2022-11-15T04:36:56;100410.56;;;11.63;71.65
60059;BME280;45932;50.658;3.022;2022-11-15T04:39:41;100395.63;;;11.60;71.70
60059;BME280;45932;50.658;3.022;2022-11-15T04:42:08;100455.25;;;11.98;71.72
60059;BME280;45932;50.658;3.022;2022-11-15T04:44:33;100419.38;;;11.63;71.79
60059;BME280;45932;50.658;3.022;2022-11-15T04:46:59;100382.53;;;11.43;71.91
60059;BME280;45932;50.658;3.022;2022-11-15T04:49:24;100367.69;;;11.28;71.77
60059;BME280;45932;50.658;3.022;2022-11-15T04:51:49;100401.84;;;11.51;71.84
60059;BME280;45932;50.658;3.022;2022-11-15T04:54:15;100343.13;;;11.17;71.64
60059;BME280;45932;50.658;3.022;2022-11-15T04:56:40;100400.16;;;11.41;71.69
60059;BME280;45932;50.658;3.022;2022-11-15T04:59:05;100375.63;;;11.27;71.62
60059;BME280;45932;50.658;3.022;2022-11-15T05:01:31;100390.50;;;11.37;71.69
60059;BME280;45932;50.658;3.022;2022-11-15T05:03:56;100365.94;;;11.23;71.70
60059;BME280;45932;50.658;3.022;2022-11-15T05:06:40;100401.91;;;11.42;71.94
60059;BME280;45932;50.658;3.022;2022-11-15T05:09:06;100358.06;;;11.16;71.77
60059;BME280;45932;50.658;3.022;2022-11-15T05:11:31;100383.53;;;11.28;71.49
60059;BME280;45932;50.658;3.022;2022-11-15T05:13:56;100401.94;;;11.36;71.63
60059;BME280;45932;50.658;3.022;2022-11-15T05:16:22;100406.28;;;11.46;71.78
60059;BME280;45932;50.658;3.022;2022-11-15T05:18:51;100394.94;;;11.32;71.66
60059;BME280;45932;50.658;3.022;2022-11-15T05:21:16;100351.06;;;11.09;71.94
60059;BME280;45932;50.658;3.022;2022-11-15T05:23:41;100352.91;;;10.98;71.71
60059;BME280;45932;50.658;3.022;2022-11-15T05:26:08;100444.03;;;11.64;71.69
60059;BME280;45932;50.658;3.022;2022-11-15T05:28:34;100426.50;;;11.53;71.86
60059;BME280;45932;50.658;3.022;2022-11-15T05:31:14;100375.66;;;11.17;71.76
60059;BME280;45932;50.658;3.022;2022-11-15T05:33:40;100356.34;;;11.09;71.55
60059;BME280;45932;50.658;3.022;2022-11-15T05:36:12;100326.56;;;10.88;71.81
60059;BME280;45932;50.658;3.022;2022-11-15T05:38:39;100331.81;;;10.96;71.83
60059;BME280;45932;50.658;3.022;2022-11-15T05:41:05;100337.97;;;10.97;71.80
60059;BME280;45932;50.658;3.022;2022-11-15T05:43:32;100323.00;;;10.99;71.76
60059;BME280;45932;50.658;3.022;2022-11-15T05:45:59;100358.94;;;11.15;72.05
60059;BME280;45932;50.658;3.022;2022-11-15T05:48:26;100357.22;;;11.13;71.93
60059;BME280;45932;50.658;3.022;2022-11-15T05:50:52;100366.88;;;11.15;72.15
60059;BME280;45932;50.658;3.022;2022-11-15T05:53:19;100285.34;;;10.69;71.81
60059;BME280;45932;50.658;3.022;2022-11-15T05:55:47;100412.50;;;11.36;72.04
60059;BME280;45932;50.658;3.022;2022-11-15T05:58:12;100307.28;;;10.80;71.70
60059;BME280;45932;50.658;3.022;2022-11-15T06:00:38;100330.06;;;10.95;71.87
60059;BME280;45932;50.658;3.022;2022-11-15T06:03:03;100381.78;;;11.26;71.94
60059;BME280;45932;50.658;3.022;2022-11-15T06:05:29;100359.84;;;11.17;71.80
60059;BME280;45932;50.658;3.022;2022-11-15T06:07:57;100268.66;;;10.67;71.85
60059;BME280;45932;50.658;3.022;2022-11-15T06:10:24;100330.03;;;10.97;71.67
60059;BME280;45932;50.658;3.022;2022-11-15T06:13:04;100355.44;;;11.16;71.74
60059;BME280;45932;50.658;3.022;2022-11-15T06:15:32;100398.41;;;11.42;71.77
60059;BME280;45932;50.658;3.022;2022-11-15T06:17:58;100415.94;;;11.50;71.39
60059;BME280;45932;50.658;3.022;2022-11-15T06:20:28;100323.03;;;10.93;71.43
60059;BME280;45932;50.658;3.022;2022-11-15T06:22:58;100375.66;;;11.20;71.61
60059;BME280;45932;50.658;3.022;2022-11-15T06:25:24;100351.09;;;11.06;71.65
60059;BME280;45932;50.658;3.022;2022-11-15T06:27:53;100334.47;;;10.96;71.40
60059;BME280;45932;50.658;3.022;2022-11-15T06:30:19;100365.06;;;11.24;71.68
60059;BME280;45932;50.658;3.022;2022-11-15T06:32:45;100294.09;;;10.80;71.66
60059;BME280;45932;50.658;3.022;2022-11-15T06:35:10;100358.91;;;11.21;71.56
60059;BME280;45932;50.658;3.022;2022-11-15T06:37:35;100315.09;;;10.99;71.49
60059;BME280;45932;50.658;3.022;2022-11-15T06:40:01;100357.13;;;11.25;71.37
60059;BME280;45932;50.658;3.022;2022-11-15T06:42:26;100316.81;;;10.98;71.41
60059;BME280;45932;50.658;3.022;2022-11-15T06:44:51;100266.00;;;10.65;71.33
60059;BME280;45932;50.658;3.022;2022-11-15T06:47:17;100339.59;;;11.15;71.59
60059;BME280;45932;50.658;3.022;2022-11-15T06:49:42;100328.19;;;11.08;71.19
60059;BME280;45932;50.658;3.022;2022-11-15T06:52:07;100335.28;;;11.06;71.49
60059;BME280;45932;50.658;3.022;2022-11-15T06:54:33;100335.22;;;11.11;71.58
60059;BME280;45932;50.658;3.022;2022-11-15T06:56:58;100301.00;;;10.97;71.28
60059;BME280;45932;50.658;3.022;2022-11-15T06:59:23;100337.75;;;11.26;71.18
60059;BME280;45932;50.658;3.022;2022-11-15T07:01:49;100360.50;;;11.46;71.42
60059;BME280;45932;50.658;3.022;2022-11-15T07:04:14;100287.78;;;11.03;71.37
60059;BME280;45932;50.658;3.022;2022-11-15T07:06:40;100272.03;;;10.91;71.30
60059;BME280;45932;50.658;3.022;2022-11-15T07:09:05;100256.22;;;10.86;71.43
60059;BME280;45932;50.658;3.022;2022-11-15T07:11:30;100308.81;;;11.14;71.39
60059;BME280;45932;50.658;3.022;2022-11-15T07:13:57;100233.50;;;10.65;71.33
60059;BME280;45932;50.658;3.022;2022-11-15T07:16:22;100288.63;;;11.10;71.22
60059;BME280;45932;50.658;3.022;2022-11-15T07:18:48;100280.69;;;11.08;71.09
60059;BME280;45932;50.658;3.022;2022-11-15T07:21:13;100261.44;;;10.95;71.17
60059;BME280;45932;50.658;3.022;2022-11-15T07:23:39;100332.38;;;11.42;71.19
60059;BME280;45932;50.658;3.022;2022-11-15T07:26:05;100335.00;;;11.43;71.57
60059;BME280;45932;50.658;3.022;2022-11-15T07:28:31;100338.53;;;11.44;71.18
60059;BME280;45932;50.658;3.022;2022-11-15T07:30:57;100282.44;;;11.09;70.96
60059;BME280;45932;50.658;3.022;2022-11-15T07:33:22;100321.94;;;11.25;71.06
60059;BME280;45932;50.658;3.022;2022-11-15T07:35:47;100249.22;;;10.79;70.80
60059;BME280;45932;50.658;3.022;2022-11-15T07:38:16;100299.16;;;11.11;70.73
60059;BME280;45932;50.658;3.022;2022-11-15T07:40:45;100362.28;;;11.45;70.85
60059;BME280;45932;50.658;3.022;2022-11-15T07:43:10;100317.59;;;11.20;70.98
60059;BME280;45932;50.658;3.022;2022-11-15T07:45:40;100313.25;;;11.10;70.94
60059;BME280;45932;50.658;3.022;2022-11-15T07:48:06;100257.09;;;10.85;70.80
60059;BME280;45932;50.658;3.022;2022-11-15T07:50:32;100289.53;;;11.01;70.88
60059;BME280;45932;50.658;3.022;2022-11-15T07:52:59;100352.59;;;11.41;70.72
60059;BME280;45932;50.658;3.022;2022-11-15T07:55:25;100316.72;;;11.17;70.67
60059;BME280;45932;50.658;3.022;2022-11-15T07:57:52;100238.69;;;10.74;70.40
60059;BME280;45932;50.658;3.022;2022-11-15T08:00:18;100285.19;;;10.95;70.70
60059;BME280;45932;50.658;3.022;2022-11-15T08:02:44;100300.13;;;10.98;70.62
60059;BME280;45932;50.658;3.022;2022-11-15T08:05:09;100356.09;;;11.45;70.56
60059;BME280;45932;50.658;3.022;2022-11-15T08:07:35;100229.09;;;10.68;70.42
60059;BME280;45932;50.658;3.022;2022-11-15T08:10:00;100216.84;;;10.60;70.66
60059;BME280;45932;50.658;3.022;2022-11-15T08:12:32;100214.13;;;10.69;70.56
60059;BME280;45932;50.658;3.022;2022-11-15T08:14:57;100288.56;;;11.16;70.30
60059;BME280;45932;50.658;3.022;2022-11-15T08:17:23;100237.81;;;10.78;70.22
60059;BME280;45932;50.658;3.022;2022-11-15T08:19:49;100312.31;;;11.20;70.37
60059;BME280;45932;50.658;3.022;2022-11-15T08:22:14;100261.41;;;11.00;70.43
60059;BME280;45932;50.658;3.022;2022-11-15T08:24:39;100220.19;;;10.82;70.33
60059;BME280;45932;50.658;3.022;2022-11-15T08:27:05;100220.16;;;10.85;70.42
60059;BME280;45932;50.658;3.022;2022-11-15T08:29:43;100230.69;;;10.88;70.15
60059;BME280;45932;50.658;3.022;2022-11-15T08:32:09;100234.19;;;10.92;70.34
60059;BME280;45932;50.658;3.022;2022-11-15T08:34:35;100272.75;;;11.13;70.08
60059;BME280;45932;50.658;3.022;2022-11-15T08:37:00;100235.09;;;10.91;69.92
60059;BME280;45932;50.658;3.022;2022-11-15T08:39:29;100276.19;;;11.21;69.76
60059;BME280;45932;50.658;3.022;2022-11-15T08:41:54;100227.19;;;10.89;69.93
60059;BME280;45932;50.658;3.022;2022-11-15T08:44:19;100187.72;;;10.72;69.77
60059;BME280;45932;50.658;3.022;2022-11-15T08:46:48;100264.78;;;11.20;69.59
60059;BME280;45932;50.658;3.022;2022-11-15T08:49:13;100203.41;;;10.91;69.45
60059;BME280;45932;50.658;3.022;2022-11-15T08:51:38;100231.41;;;11.13;69.50
60059;BME280;45932;50.658;3.022;2022-11-15T08:54:04;100264.72;;;11.27;69.39
60059;BME280;45932;50.658;3.022;2022-11-15T08:56:29;100213.84;;;11.08;69.06
60059;BME280;45932;50.658;3.022;2022-11-15T08:58:55;100247.97;;;11.31;69.38
60059;BME280;45932;50.658;3.022;2022-11-15T09:01:20;100294.31;;;11.66;69.25
60059;BME280;45932;50.658;3.022;2022-11-15T09:03:46;100229.47;;;11.34;69.17
60059;BME280;45932;50.658;3.022;2022-11-15T09:06:11;100239.06;;;11.43;69.02
60059;BME280;45932;50.658;3.022;2022-11-15T09:08:37;100261.72;;;11.64;69.05
60059;BME280;45932;50.658;3.022;2022-11-15T09:11:04;100218.78;;;11.43;69.01
60059;BME280;45932;50.658;3.022;2022-11-15T09:13:29;100185.47;;;11.33;69.32
60059;BME280;45932;50.658;3.022;2022-11-15T09:15:59;100203.72;;;11.56;69.11
60059;BME280;45932;50.658;3.022;2022-11-15T09:18:25;100294.69;;;12.17;69.08
60059;BME280;45932;50.658;3.022;2022-11-15T09:20:50;100183.41;;;11.61;69.03
60059;BME280;45932;50.658;3.022;2022-11-15T09:23:16;100249.81;;;12.11;68.68
60059;BME280;45932;50.658;3.022;2022-11-15T09:25:41;100212.16;;;11.88;68.56
60059;BME280;45932;50.658;3.022;2022-11-15T09:28:07;100291.72;;;12.42;68.37
60059;BME280;45932;50.658;3.022;2022-11-15T09:30:33;100231.34;;;12.07;68.19
60059;BME280;45932;50.658;3.022;2022-11-15T09:32:58;100174.38;;;11.79;68.20
60059;BME280;45932;50.658;3.022;2022-11-15T09:35:23;100225.19;;;12.05;68.04
60059;BME280;45932;50.658;3.022;2022-11-15T09:37:49;100177.75;;;11.94;67.78
60059;BME280;45932;50.658;3.022;2022-11-15T09:40:16;100233.75;;;12.27;67.63
60059;BME280;45932;50.658;3.022;2022-11-15T09:42:56;100221.38;;;12.29;67.67
60059;BME280;45932;50.658;3.022;2022-11-15T09:48:22;100278.28;;;12.61;67.37
60059;BME280;45932;50.658;3.022;2022-11-15T09:50:52;100202.16;;;12.14;67.38
60059;BME280;45932;50.658;3.022;2022-11-15T09:53:34;100193.31;;;12.19;67.39
60059;BME280;45932;50.658;3.022;2022-11-15T09:56:05;100216.06;;;12.30;67.39
60059;BME280;45932;50.658;3.022;2022-11-15T10:01:48;100241.09;;;12.70;67.39
60059;BME280;45932;50.658;3.022;2022-11-15T10:04:20;100167.41;;;12.42;67.70
60059;BME280;45932;50.658;3.022;2022-11-15T10:06:54;100236.56;;;12.78;67.08
60059;BME280;45932;50.658;3.022;2022-11-15T10:12:14;100185.69;;;12.58;67.25
60059;BME280;45932;50.658;3.022;2022-11-15T10:14:41;100164.63;;;12.52;66.83
60059;BME280;45932;50.658;3.022;2022-11-15T10:22:47;100233.38;;;13.12;66.93
60059;BME280;45932;50.658;3.022;2022-11-15T10:25:17;100223.53;;;13.21;67.00
60059;BME280;45932;50.658;3.022;2022-11-15T10:27:54;100157.97;;;12.82;66.68
60059;BME280;45932;50.658;3.022;2022-11-15T10:30:20;100210.91;;;13.35;66.26
60059;BME280;45932;50.658;3.022;2022-11-15T10:32:47;100170.69;;;13.15;66.37
60059;BME280;45932;50.658;3.022;2022-11-15T10:35:31;100207.28;;;13.42;66.64
60059;BME280;45932;50.658;3.022;2022-11-15T10:38:08;100138.16;;;13.06;66.19
60059;BME280;45932;50.658;3.022;2022-11-15T10:40:34;100151.22;;;13.16;65.94
60059;BME280;45932;50.658;3.022;2022-11-15T10:43:18;100130.22;;;13.06;66.03
60059;BME280;45932;50.658;3.022;2022-11-15T10:45:45;100136.44;;;13.02;65.96
60059;BME280;45932;50.658;3.022;2022-11-15T10:50:47;100165.88;;;13.35;65.92
60059;BME280;45932;50.658;3.022;2022-11-15T10:53:40;100107.31;;;13.02;66.01
60059;BME280;45932;50.658;3.022;2022-11-15T10:56:08;100025.91;;;12.67;65.96
60059;BME280;45932;50.658;3.022;2022-11-15T10:58:44;100131.63;;;13.26;65.98
60059;BME280;45932;50.658;3.022;2022-11-15T11:01:12;100151.50;;;13.50;65.99
60059;BME280;45932;50.658;3.022;2022-11-15T11:03:39;100099.97;;;13.18;65.77
60059;BME280;45932;50.658;3.022;2022-11-15T11:06:11;100086.53;;;13.29;65.86
60059;BME280;45932;50.658;3.022;2022-11-15T11:08:37;100047.25;;;13.07;65.76
60059;BME280;45932;50.658;3.022;2022-11-15T11:11:04;100013.88;;;12.97;65.76
60059;BME280;45932;50.658;3.022;2022-11-15T11:13:33;100100.22;;;13.53;66.23
60059;BME280;45932;50.658;3.022;2022-11-15T11:16:17;100108.78;;;13.66;65.99
60059;BME280;45932;50.658;3.022;2022-11-15T11:19:18;100081.59;;;13.56;65.95
60059;BME280;45932;50.658;3.022;2022-11-15T11:24:56;100031.88;;;13.25;65.86
60059;BME280;45932;50.658;3.022;2022-11-15T11:30:17;100082.16;;;13.72;65.78
60059;BME280;45932;50.658;3.022;2022-11-15T11:32:58;100003.69;;;13.22;65.62
60059;BME280;45932;50.658;3.022;2022-11-15T11:35:31;100089.19;;;13.74;65.75
60059;BME280;45932;50.658;3.022;2022-11-15T11:43:16;100015.00;;;13.29;65.68
60059;BME280;45932;50.658;3.022;2022-11-15T11:48:42;100065.25;;;13.77;65.27
60059;BME280;45932;50.658;3.022;2022-11-15T11:51:13;100015.63;;;13.43;65.38
60059;BME280;45932;50.658;3.022;2022-11-15T11:56:40;100070.50;;;13.81;65.28
60059;BME280;45932;50.658;3.022;2022-11-15T11:59:37;100070.50;;;13.81;65.42
60059;BME280;45932;50.658;3.022;2022-11-15T12:02:25;100052.03;;;13.76;65.28
60059;BME280;45932;50.658;3.022;2022-11-15T12:04:57;99982.06;;;13.44;65.25
60059;BME280;45932;50.658;3.022;2022-11-15T12:07:32;99962.03;;;13.29;65.31
60059;BME280;45932;50.658;3.022;2022-11-15T12:12:50;100015.78;;;13.78;65.63
60059;BME280;45932;50.658;3.022;2022-11-15T12:15:24;100015.59;;;13.86;65.87
60059;BME280;45932;50.658;3.022;2022-11-15T12:17:51;99986.97;;;13.63;65.77
60059;BME280;45932;50.658;3.022;2022-11-15T12:20:23;99980.56;;;13.71;66.07
60059;BME280;45932;50.658;3.022;2022-11-15T12:25:22;100004.09;;;13.87;66.47
60059;BME280;45932;50.658;3.022;2022-11-15T12:30:21;99973.22;;;13.83;67.03
60059;BME280;45932;50.658;3.022;2022-11-15T12:32:56;99885.91;;;13.37;67.12
60059;BME280;45932;50.658;3.022;2022-11-15T12:35:40;99883.25;;;13.39;67.72
60059;BME280;45932;50.658;3.022;2022-11-15T12:38:10;99955.56;;;13.82;67.30
60059;BME280;45932;50.658;3.022;2022-11-15T12:40:39;99945.06;;;13.79;67.42
60059;BME280;45932;50.658;3.022;2022-11-15T12:43:38;99915.22;;;13.70;67.85
60059;BME280;45932;50.658;3.022;2022-11-15T12:46:04;99841.19;;;13.25;67.83
60059;BME280;45932;50.658;3.022;2022-11-15T12:50:59;99845.34;;;13.35;67.63
60059;BME280;45932;50.658;3.022;2022-11-15T12:53:27;99857.56;;;13.44;68.07
60059;BME280;45932;50.658;3.022;2022-11-15T12:58:56;99882.41;;;13.76;68.14
60059;BME280;45932;50.658;3.022;2022-11-15T13:07:01;99851.06;;;13.57;68.23
60059;BME280;45932;50.658;3.022;2022-11-15T13:12:00;99869.09;;;13.77;68.28
60059;BME280;45932;50.658;3.022;2022-11-15T13:17:26;99737.31;;;13.12;68.85
60059;BME280;45932;50.658;3.022;2022-11-15T13:19:59;99779.25;;;13.31;68.58
60059;BME280;45932;50.658;3.022;2022-11-15T13:22:27;99850.50;;;13.79;68.59
60059;BME280;45932;50.658;3.022;2022-11-15T13:27:49;99769.53;;;13.31;68.83
60059;BME280;45932;50.658;3.022;2022-11-15T13:30:24;99778.31;;;13.33;69.17
60059;BME280;45932;50.658;3.022;2022-11-15T13:32:51;99735.66;;;13.08;69.03
60059;BME280;45932;50.658;3.022;2022-11-15T13:35:25;99787.53;;;13.54;69.29
60059;BME280;45932;50.658;3.022;2022-11-15T13:37:55;99744.91;;;13.27;69.29
60059;BME280;45932;50.658;3.022;2022-11-15T13:40:27;99765.06;;;13.33;69.53
60059;BME280;45932;50.658;3.022;2022-11-15T13:42:56;99804.84;;;13.68;69.91
60059;BME280;45932;50.658;3.022;2022-11-15T13:45:22;99727.38;;;13.22;69.90
60059;BME280;45932;50.658;3.022;2022-11-15T13:47:55;99744.84;;;13.29;69.92
60059;BME280;45932;50.658;3.022;2022-11-15T13:50:25;99716.13;;;13.12;70.44
60059;BME280;45932;50.658;3.022;2022-11-15T13:52:53;99742.09;;;13.34;70.43
60059;BME280;45932;50.658;3.022;2022-11-15T13:55:23;99699.66;;;13.01;70.31
60059;BME280;45932;50.658;3.022;2022-11-15T13:57:58;99590.16;;;12.34;70.21
60059;BME280;45932;50.658;3.022;2022-11-15T14:00:45;99796.09;;;13.64;70.46
60059;BME280;45932;50.658;3.022;2022-11-15T14:03:19;99759.94;;;13.25;70.51
60059;BME280;45932;50.658;3.022;2022-11-15T14:06:05;99698.53;;;13.11;70.96
60059;BME280;45932;50.658;3.022;2022-11-15T14:08:40;99639.44;;;12.74;71.44
60059;BME280;45932;50.658;3.022;2022-11-15T14:13:35;99714.91;;;13.27;71.89
60059;BME280;45932;50.658;3.022;2022-11-15T14:16:19;99589.59;;;12.56;71.55
60059;BME280;45932;50.658;3.022;2022-11-15T14:18:48;99744.34;;;13.51;72.11
60059;BME280;45932;50.658;3.022;2022-11-15T14:21:14;99659.31;;;12.91;71.76
60059;BME280;45932;50.658;3.022;2022-11-15T14:23:39;99648.66;;;12.94;72.01
60059;BME280;45932;50.658;3.022;2022-11-15T14:26:05;99641.47;;;12.99;72.47
60059;BME280;45932;50.658;3.022;2022-11-15T14:28:33;99647.50;;;13.04;72.45
60059;BME280;45932;50.658;3.022;2022-11-15T14:31:02;99579.50;;;12.72;72.64
60059;BME280;45932;50.658;3.022;2022-11-15T14:33:33;99572.34;;;12.77;72.96
60059;BME280;45932;50.658;3.022;2022-11-15T14:36:15;99701.00;;;13.53;72.77
60059;BME280;45932;50.658;3.022;2022-11-15T14:41:50;99541.28;;;12.49;72.62
60059;BME280;45932;50.658;3.022;2022-11-15T14:44:18;99667.78;;;13.40;72.63
60059;BME280;45932;50.658;3.022;2022-11-15T14:47:09;99543.56;;;12.63;72.84